JAL8118 RJTT-RJBB
Flight info
| Callsign | JAL8118 |
|---|---|
| Flight time | 1h 19m |
| Altitude | 32000 |
| Route | LAXAS Y56 TOHME Y54 KOHWA Y544 DUBKA |
| Aircraft | A359/H-SDE2E3GHIJ3J4J5LM1ORWXY/LB1D1 |
Departure
| Time | 2026-05-01 07:23 |
|---|---|
| Airport | Tokyo Haneda International Airport (RJTT) |
Arrival
| Time | 2026-05-01 08:43 |
|---|---|
| Airport | Kansai International Airport (RJBB) |
| Time | Latitude | Longitude | Altitude | Speed | Heading |
|---|---|---|---|---|---|
| 2026-05-01 07:23 | 35.31935 | 139.75287 | 11455 ft | 325 kts | 218° |
| 2026-05-01 07:23 | 35.28278 | 139.71596 | 12425 ft | 357 kts | 221° |
| 2026-05-01 07:24 | 35.26386 | 139.69586 | 13200 ft | 363 kts | 221° |
| 2026-05-01 07:24 | 35.24462 | 139.67555 | 13974 ft | 368 kts | 221° |
| 2026-05-01 07:24 | 35.22508 | 139.65503 | 14737 ft | 373 kts | 221° |
| 2026-05-01 07:24 | 35.20528 | 139.63432 | 15485 ft | 377 kts | 220° |
| 2026-05-01 07:25 | 35.18522 | 139.61338 | 16217 ft | 381 kts | 220° |
| 2026-05-01 07:25 | 35.16532 | 139.59264 | 16920 ft | 385 kts | 220° |
| 2026-05-01 07:25 | 35.14478 | 139.57125 | 17633 ft | 390 kts | 220° |
| 2026-05-01 07:25 | 35.12419 | 139.54983 | 18342 ft | 394 kts | 220° |
| 2026-05-01 07:26 | 35.10323 | 139.52802 | 19051 ft | 398 kts | 221° |
| 2026-05-01 07:26 | 35.08382 | 139.50374 | 19742 ft | 402 kts | 233° |
| 2026-05-01 07:26 | 35.07061 | 139.47361 | 20437 ft | 406 kts | 251° |
| 2026-05-01 07:26 | 35.06366 | 139.44013 | 21126 ft | 410 kts | 258° |
| 2026-05-01 07:27 | 35.05810 | 139.40578 | 21782 ft | 414 kts | 259° |
| 2026-05-01 07:27 | 35.05265 | 139.37160 | 22421 ft | 418 kts | 259° |
| 2026-05-01 07:27 | 35.04697 | 139.33662 | 23054 ft | 422 kts | 259° |
| 2026-05-01 07:27 | 35.04116 | 139.30133 | 23663 ft | 426 kts | 258° |
| 2026-05-01 07:28 | 35.03525 | 139.26568 | 24267 ft | 430 kts | 258° |
| 2026-05-01 07:28 | 35.02924 | 139.22975 | 24869 ft | 434 kts | 258° |
| 2026-05-01 07:28 | 35.02320 | 139.19379 | 25436 ft | 438 kts | 258° |
| 2026-05-01 07:28 | 35.01706 | 139.15722 | 25997 ft | 442 kts | 258° |
| 2026-05-01 07:29 | 35.01087 | 139.12035 | 26550 ft | 446 kts | 258° |
| 2026-05-01 07:29 | 35.00472 | 139.08387 | 27069 ft | 449 kts | 258° |
| 2026-05-01 07:29 | 34.99839 | 139.04643 | 27589 ft | 453 kts | 258° |
| 2026-05-01 07:29 | 34.99202 | 139.00854 | 28044 ft | 458 kts | 259° |
| 2026-05-01 07:30 | 34.98780 | 138.96992 | 28513 ft | 462 kts | 265° |
| 2026-05-01 07:30 | 34.98506 | 138.93076 | 29029 ft | 464 kts | 265° |
| 2026-05-01 07:30 | 34.98275 | 138.89140 | 29505 ft | 468 kts | 266° |
| 2026-05-01 07:30 | 34.98066 | 138.85167 | 29927 ft | 471 kts | 266° |
| 2026-05-01 07:31 | 34.97866 | 138.81179 | 30312 ft | 476 kts | 266° |
| 2026-05-01 07:31 | 34.97246 | 138.69076 | 31561 ft | 482 kts | 266° |
| 2026-05-01 07:32 | 34.96807 | 138.60878 | 31997 ft | 484 kts | 266° |
| 2026-05-01 07:33 | 34.96133 | 138.48613 | 32000 ft | 483 kts | 266° |
| 2026-05-01 07:33 | 34.95450 | 138.36405 | 32000 ft | 484 kts | 266° |
| 2026-05-01 07:34 | 34.94754 | 138.24163 | 31999 ft | 485 kts | 266° |
| 2026-05-01 07:35 | 34.94281 | 138.15960 | 31999 ft | 485 kts | 266° |
| 2026-05-01 07:35 | 34.93809 | 138.07804 | 32000 ft | 486 kts | 266° |
| 2026-05-01 07:36 | 34.93322 | 137.99605 | 31999 ft | 486 kts | 266° |
| 2026-05-01 07:36 | 34.92839 | 137.91559 | 32008 ft | 460 kts | 266° |
| 2026-05-01 07:36 | 34.92608 | 137.87737 | 32009 ft | 444 kts | 266° |
| 2026-05-01 07:37 | 34.92167 | 137.80497 | 32009 ft | 413 kts | 265° |
| 2026-05-01 07:37 | 34.91955 | 137.77068 | 32008 ft | 399 kts | 265° |
| 2026-05-01 07:37 | 34.91754 | 137.73801 | 32008 ft | 384 kts | 265° |
| 2026-05-01 07:38 | 34.91597 | 137.71254 | 32007 ft | 372 kts | 266° |
| 2026-05-01 07:38 | 34.91260 | 137.68174 | 32009 ft | 364 kts | 258° |
| 2026-05-01 07:39 | 34.88970 | 137.59407 | 32000 ft | 362 kts | 250° |
| 2026-05-01 07:39 | 34.86353 | 137.50779 | 32000 ft | 362 kts | 250° |
| 2026-05-01 07:40 | 34.84630 | 137.45069 | 32001 ft | 362 kts | 250° |
| 2026-05-01 07:40 | 34.82975 | 137.39294 | 32000 ft | 361 kts | 251° |
| 2026-05-01 07:41 | 34.81340 | 137.33520 | 32000 ft | 361 kts | 251° |
| 2026-05-01 07:42 | 34.78868 | 137.24870 | 32000 ft | 361 kts | 251° |
| 2026-05-01 07:42 | 34.77210 | 137.19110 | 32000 ft | 361 kts | 251° |
| 2026-05-01 07:43 | 34.75560 | 137.13394 | 32000 ft | 360 kts | 251° |
| 2026-05-01 07:43 | 34.73056 | 137.04737 | 32000 ft | 360 kts | 251° |
| 2026-05-01 07:44 | 34.69445 | 136.93434 | 32001 ft | 360 kts | 244° |
| 2026-05-01 07:45 | 34.67188 | 136.87996 | 32000 ft | 360 kts | 243° |
| 2026-05-01 07:45 | 34.64886 | 136.82596 | 32000 ft | 360 kts | 243° |
| 2026-05-01 07:46 | 34.62580 | 136.77199 | 32000 ft | 360 kts | 243° |
| 2026-05-01 07:47 | 34.59147 | 136.69144 | 32000 ft | 360 kts | 243° |
| 2026-05-01 07:47 | 34.56847 | 136.63750 | 32000 ft | 360 kts | 243° |
| 2026-05-01 07:48 | 34.53394 | 136.55668 | 32000 ft | 360 kts | 243° |
| 2026-05-01 07:48 | 34.51090 | 136.50286 | 32000 ft | 360 kts | 243° |
| 2026-05-01 07:49 | 34.47647 | 136.42262 | 32000 ft | 360 kts | 243° |
| 2026-05-01 07:50 | 34.45342 | 136.36900 | 31999 ft | 360 kts | 243° |
| 2026-05-01 07:50 | 34.41958 | 136.29043 | 32001 ft | 360 kts | 243° |
| 2026-05-01 07:51 | 34.39637 | 136.23665 | 32000 ft | 361 kts | 242° |
| 2026-05-01 07:52 | 34.36163 | 136.15584 | 31998 ft | 361 kts | 245° |
| 2026-05-01 07:52 | 34.34539 | 136.09899 | 31999 ft | 362 kts | 256° |
| 2026-05-01 07:53 | 34.32877 | 136.00997 | 32002 ft | 363 kts | 258° |
| 2026-05-01 07:53 | 34.31827 | 135.95035 | 32000 ft | 362 kts | 258° |
| 2026-05-01 07:55 | 34.29156 | 135.80229 | 32000 ft | 361 kts | 258° |
| 2026-05-01 07:55 | 34.28076 | 135.74307 | 31782 ft | 361 kts | 257° |
| 2026-05-01 07:56 | 34.26463 | 135.65516 | 30752 ft | 350 kts | 257° |
| 2026-05-01 07:56 | 34.25420 | 135.59844 | 30072 ft | 342 kts | 257° |
| 2026-05-01 07:57 | 34.24901 | 135.57023 | 29497 ft | 347 kts | 257° |
| 2026-05-01 07:57 | 34.23842 | 135.51285 | 28194 ft | 359 kts | 257° |
| 2026-05-01 07:58 | 34.22734 | 135.45298 | 26884 ft | 371 kts | 257° |
| 2026-05-01 07:58 | 34.21593 | 135.39140 | 25573 ft | 380 kts | 257° |
| 2026-05-01 07:59 | 34.20416 | 135.32815 | 24246 ft | 386 kts | 257° |
| 2026-05-01 07:59 | 34.19235 | 135.26494 | 22941 ft | 390 kts | 257° |
| 2026-05-01 08:00 | 34.16293 | 135.13884 | 20331 ft | 393 kts | 239° |
| 2026-05-01 08:01 | 34.10125 | 135.07692 | 18383 ft | 391 kts | 209° |
| 2026-05-01 08:01 | 34.07746 | 135.06111 | 17731 ft | 390 kts | 209° |
| 2026-05-01 08:01 | 34.05391 | 135.04541 | 17090 ft | 388 kts | 209° |
| 2026-05-01 08:02 | 34.00688 | 135.01385 | 15780 ft | 385 kts | 209° |
| 2026-05-01 08:02 | 33.98358 | 134.99817 | 15120 ft | 383 kts | 209° |
| 2026-05-01 08:03 | 33.93738 | 134.96706 | 13810 ft | 378 kts | 209° |
| 2026-05-01 08:03 | 33.91449 | 134.95165 | 13180 ft | 375 kts | 209° |
| 2026-05-01 08:03 | 33.86956 | 134.92142 | 11886 ft | 369 kts | 209° |
| 2026-05-01 08:04 | 33.82512 | 134.89156 | 10670 ft | 361 kts | 209° |
| 2026-05-01 08:04 | 33.78655 | 134.85775 | 10368 ft | 326 kts | 233° |
| 2026-05-01 08:05 | 33.77329 | 134.81029 | 10369 ft | 287 kts | 268° |
| 2026-05-01 08:05 | 33.77299 | 134.78702 | 10374 ft | 270 kts | 270° |
| 2026-05-01 08:05 | 33.77300 | 134.76542 | 10367 ft | 254 kts | 270° |
| 2026-05-01 08:06 | 33.77294 | 134.72572 | 10362 ft | 222 kts | 270° |
| 2026-05-01 08:06 | 33.77279 | 134.68930 | 10360 ft | 217 kts | 270° |
| 2026-05-01 08:07 | 33.77263 | 134.65305 | 10337 ft | 217 kts | 270° |
| 2026-05-01 08:07 | 33.78100 | 134.61898 | 10293 ft | 216 kts | 307° |
| 2026-05-01 08:08 | 33.79170 | 134.60684 | 10298 ft | 217 kts | 324° |
| 2026-05-01 08:08 | 33.81688 | 134.58687 | 10296 ft | 218 kts | 327° |
| 2026-05-01 08:09 | 33.84225 | 134.56698 | 10300 ft | 218 kts | 326° |
| 2026-05-01 08:09 | 33.85412 | 134.55571 | 10300 ft | 217 kts | 313° |
| 2026-05-01 08:09 | 33.86247 | 134.54070 | 10304 ft | 217 kts | 292° |
| 2026-05-01 08:10 | 33.87155 | 134.50617 | 10309 ft | 217 kts | 285° |
| 2026-05-01 08:10 | 33.87983 | 134.47145 | 10294 ft | 217 kts | 286° |
| 2026-05-01 08:11 | 33.88831 | 134.43647 | 10298 ft | 218 kts | 286° |
| 2026-05-01 08:11 | 33.89898 | 134.40247 | 10300 ft | 218 kts | 303° |
| 2026-05-01 08:12 | 33.91753 | 134.37371 | 10304 ft | 218 kts | 309° |
| 2026-05-01 08:12 | 33.92699 | 134.35977 | 10298 ft | 218 kts | 309° |
| 2026-05-01 08:12 | 33.94608 | 134.33143 | 10301 ft | 219 kts | 308° |
| 2026-05-01 08:13 | 33.95565 | 134.31718 | 10299 ft | 219 kts | 308° |
| 2026-05-01 08:13 | 33.96513 | 134.30304 | 10304 ft | 218 kts | 308° |
| 2026-05-01 08:13 | 33.98775 | 134.27954 | 10300 ft | 218 kts | 330° |
| 2026-05-01 08:14 | 34.00106 | 134.27070 | 10298 ft | 219 kts | 331° |
| 2026-05-01 08:14 | 34.01447 | 134.26199 | 10299 ft | 219 kts | 331° |
| 2026-05-01 08:14 | 34.02766 | 134.25339 | 10305 ft | 218 kts | 331° |
| 2026-05-01 08:14 | 34.04097 | 134.24466 | 10308 ft | 218 kts | 331° |
| 2026-05-01 08:15 | 34.05427 | 134.23592 | 10306 ft | 218 kts | 331° |
| 2026-05-01 08:15 | 34.08093 | 134.21870 | 10297 ft | 217 kts | 335° |
| 2026-05-01 08:15 | 34.09541 | 134.21353 | 10298 ft | 218 kts | 350° |
| 2026-05-01 08:16 | 34.11043 | 134.21117 | 10308 ft | 218 kts | 353° |
| 2026-05-01 08:16 | 34.12545 | 134.20927 | 10305 ft | 219 kts | 353° |
| 2026-05-01 08:16 | 34.14059 | 134.20736 | 10304 ft | 219 kts | 353° |
| 2026-05-01 08:16 | 34.15556 | 134.20544 | 10296 ft | 219 kts | 353° |
| 2026-05-01 08:17 | 34.17072 | 134.20355 | 10300 ft | 219 kts | 354° |
| 2026-05-01 08:17 | 34.18591 | 134.20440 | 10305 ft | 219 kts | 12° |
| 2026-05-01 08:17 | 34.19991 | 134.21148 | 10293 ft | 220 kts | 34° |
| 2026-05-01 08:17 | 34.21054 | 134.22432 | 10294 ft | 220 kts | 56° |
| 2026-05-01 08:18 | 34.21644 | 134.24125 | 10304 ft | 220 kts | 79° |
| 2026-05-01 08:18 | 34.21172 | 134.27688 | 10306 ft | 220 kts | 112° |
| 2026-05-01 08:19 | 34.20469 | 134.31248 | 10301 ft | 220 kts | 96° |
| 2026-05-01 08:19 | 34.20317 | 134.33090 | 10320 ft | 220 kts | 95° |
| 2026-05-01 08:19 | 34.20179 | 134.34930 | 10329 ft | 220 kts | 95° |
| 2026-05-01 08:19 | 34.20043 | 134.36771 | 10298 ft | 220 kts | 95° |
| 2026-05-01 08:20 | 34.19908 | 134.38605 | 10038 ft | 219 kts | 95° |
| 2026-05-01 08:20 | 34.19773 | 134.40431 | 9733 ft | 219 kts | 95° |
| 2026-05-01 08:20 | 34.19621 | 134.42506 | 9404 ft | 218 kts | 95° |
| 2026-05-01 08:20 | 34.19487 | 134.44324 | 9110 ft | 217 kts | 95° |
| 2026-05-01 08:21 | 34.19353 | 134.46134 | 8813 ft | 216 kts | 95° |
| 2026-05-01 08:21 | 34.19219 | 134.47935 | 8532 ft | 215 kts | 95° |
| 2026-05-01 08:21 | 34.19086 | 134.49728 | 8254 ft | 214 kts | 95° |
| 2026-05-01 08:21 | 34.18953 | 134.51515 | 7967 ft | 213 kts | 95° |
| 2026-05-01 08:22 | 34.18821 | 134.53293 | 7685 ft | 212 kts | 95° |
| 2026-05-01 08:22 | 34.18689 | 134.55063 | 7440 ft | 211 kts | 95° |
| 2026-05-01 08:22 | 34.18568 | 134.56805 | 7194 ft | 211 kts | 93° |
| 2026-05-01 08:22 | 34.18695 | 134.58579 | 6946 ft | 210 kts | 74° |
| 2026-05-01 08:23 | 34.19306 | 134.60130 | 6696 ft | 208 kts | 54° |
| 2026-05-01 08:23 | 34.20199 | 134.61496 | 6450 ft | 207 kts | 49° |
| 2026-05-01 08:23 | 34.21133 | 134.62820 | 6237 ft | 207 kts | 49° |
| 2026-05-01 08:23 | 34.22057 | 134.64130 | 6003 ft | 206 kts | 49° |
| 2026-05-01 08:24 | 34.22982 | 134.65451 | 5780 ft | 205 kts | 49° |
| 2026-05-01 08:24 | 34.23899 | 134.66768 | 5550 ft | 205 kts | 50° |
| 2026-05-01 08:24 | 34.24811 | 134.68082 | 5351 ft | 203 kts | 50° |
| 2026-05-01 08:24 | 34.25726 | 134.69404 | 5243 ft | 204 kts | 50° |
| 2026-05-01 08:25 | 34.26634 | 134.70716 | 5141 ft | 204 kts | 50° |
| 2026-05-01 08:25 | 34.27235 | 134.71587 | 5069 ft | 203 kts | 50° |
| 2026-05-01 08:25 | 34.28448 | 134.73339 | 4931 ft | 203 kts | 50° |
| 2026-05-01 08:25 | 34.29352 | 134.74650 | 4835 ft | 202 kts | 50° |
| 2026-05-01 08:26 | 34.29949 | 134.75514 | 4766 ft | 202 kts | 50° |
| 2026-05-01 08:26 | 34.31145 | 134.77248 | 4607 ft | 202 kts | 50° |
| 2026-05-01 08:26 | 34.32020 | 134.78517 | 4503 ft | 201 kts | 50° |
| 2026-05-01 08:26 | 34.32915 | 134.79816 | 4392 ft | 201 kts | 50° |
| 2026-05-01 08:27 | 34.33810 | 134.81114 | 4361 ft | 201 kts | 50° |
| 2026-05-01 08:27 | 34.34706 | 134.82413 | 4353 ft | 201 kts | 50° |
| 2026-05-01 08:27 | 34.35601 | 134.83713 | 4366 ft | 201 kts | 50° |
| 2026-05-01 08:27 | 34.36193 | 134.84574 | 4359 ft | 201 kts | 50° |
| 2026-05-01 08:28 | 34.37088 | 134.85876 | 4359 ft | 201 kts | 50° |
| 2026-05-01 08:28 | 34.37983 | 134.87176 | 4360 ft | 201 kts | 50° |
| 2026-05-01 08:28 | 34.38875 | 134.88474 | 4356 ft | 201 kts | 50° |
| 2026-05-01 08:28 | 34.39768 | 134.89773 | 4358 ft | 200 kts | 50° |
| 2026-05-01 08:29 | 34.40950 | 134.91493 | 4363 ft | 200 kts | 50° |
| 2026-05-01 08:29 | 34.41842 | 134.92791 | 4358 ft | 200 kts | 50° |
| 2026-05-01 08:29 | 34.42444 | 134.93669 | 4356 ft | 200 kts | 50° |
| 2026-05-01 08:29 | 34.43323 | 134.94948 | 4360 ft | 200 kts | 50° |
| 2026-05-01 08:30 | 34.44214 | 134.96247 | 4356 ft | 200 kts | 50° |
| 2026-05-01 08:30 | 34.45105 | 134.97546 | 4367 ft | 200 kts | 50° |
| 2026-05-01 08:30 | 34.45995 | 134.98843 | 4359 ft | 200 kts | 50° |
| 2026-05-01 08:30 | 34.46886 | 135.00143 | 4360 ft | 200 kts | 50° |
| 2026-05-01 08:31 | 34.47777 | 135.01443 | 4362 ft | 200 kts | 50° |
| 2026-05-01 08:31 | 34.48667 | 135.02743 | 4355 ft | 200 kts | 50° |
| 2026-05-01 08:31 | 34.49846 | 135.04465 | 4361 ft | 200 kts | 50° |
| 2026-05-01 08:31 | 34.50446 | 135.05341 | 4355 ft | 200 kts | 50° |
| 2026-05-01 08:32 | 34.51324 | 135.06625 | 4361 ft | 200 kts | 50° |
| 2026-05-01 08:32 | 34.52213 | 135.07926 | 4361 ft | 200 kts | 50° |
| 2026-05-01 08:32 | 34.53102 | 135.09226 | 4356 ft | 200 kts | 50° |
| 2026-05-01 08:32 | 34.53992 | 135.10527 | 4356 ft | 200 kts | 50° |
| 2026-05-01 08:33 | 34.54880 | 135.11827 | 4356 ft | 200 kts | 50° |
| 2026-05-01 08:33 | 34.55768 | 135.13129 | 4357 ft | 200 kts | 50° |
| 2026-05-01 08:33 | 34.56653 | 135.14433 | 4367 ft | 200 kts | 50° |
| 2026-05-01 08:33 | 34.57541 | 135.15734 | 4363 ft | 200 kts | 50° |
| 2026-05-01 08:34 | 34.58418 | 135.17016 | 4356 ft | 200 kts | 50° |
| 2026-05-01 08:34 | 34.59307 | 135.18317 | 4356 ft | 200 kts | 50° |
| 2026-05-01 08:34 | 34.60142 | 135.19665 | 4358 ft | 201 kts | 59° |
| 2026-05-01 08:34 | 34.60613 | 135.21245 | 4369 ft | 199 kts | 81° |
| 2026-05-01 08:35 | 34.60747 | 135.22858 | 4324 ft | 185 kts | 88° |
| 2026-05-01 08:35 | 34.60745 | 135.24382 | 4149 ft | 178 kts | 92° |
| 2026-05-01 08:35 | 34.60684 | 135.25878 | 3917 ft | 174 kts | 94° |
| 2026-05-01 08:35 | 34.60609 | 135.27297 | 3785 ft | 164 kts | 94° |
| 2026-05-01 08:36 | 34.60542 | 135.28658 | 3540 ft | 160 kts | 93° |
| 2026-05-01 08:36 | 34.60487 | 135.30007 | 3270 ft | 160 kts | 92° |
| 2026-05-01 08:36 | 34.60444 | 135.31352 | 3023 ft | 158 kts | 92° |
| 2026-05-01 08:36 | 34.60410 | 135.32692 | 2953 ft | 159 kts | 91° |
| 2026-05-01 08:37 | 34.60271 | 135.34040 | 2731 ft | 168 kts | 103° |
| 2026-05-01 08:37 | 34.59819 | 135.35340 | 2415 ft | 166 kts | 123° |
| 2026-05-01 08:37 | 34.59067 | 135.36337 | 2140 ft | 157 kts | 143° |
| 2026-05-01 08:37 | 34.58112 | 135.36942 | 1780 ft | 155 kts | 163° |
| 2026-05-01 08:38 | 34.57056 | 135.37105 | 1584 ft | 154 kts | 182° |
| 2026-05-01 08:38 | 34.56002 | 135.36996 | 1563 ft | 148 kts | 188° |
| 2026-05-01 08:38 | 34.55008 | 135.36796 | 1565 ft | 144 kts | 191° |
| 2026-05-01 08:38 | 34.54031 | 135.36559 | 1562 ft | 143 kts | 192° |
| 2026-05-01 08:39 | 34.53081 | 135.36198 | 1562 ft | 143 kts | 201° |
| 2026-05-01 08:39 | 34.52166 | 135.35772 | 1560 ft | 143 kts | 202° |
| 2026-05-01 08:39 | 34.51237 | 135.35335 | 1560 ft | 143 kts | 202° |
| 2026-05-01 08:39 | 34.50310 | 135.34899 | 1560 ft | 143 kts | 201° |
| 2026-05-01 08:40 | 34.48770 | 135.33416 | 1561 ft | 142 kts | 230° |
| 2026-05-01 08:40 | 34.48140 | 135.32487 | 1431 ft | 143 kts | 231° |
| 2026-05-01 08:40 | 34.47519 | 135.31559 | 1242 ft | 139 kts | 231° |
| 2026-05-01 08:41 | 34.46924 | 135.30668 | 1051 ft | 134 kts | 231° |
| 2026-05-01 08:41 | 34.46338 | 135.29792 | 870 ft | 134 kts | 231° |
| 2026-05-01 08:41 | 34.45754 | 135.28920 | 686 ft | 134 kts | 231° |
| 2026-05-01 08:41 | 34.45178 | 135.28058 | 526 ft | 133 kts | 231° |
| 2026-05-01 08:42 | 34.44595 | 135.27187 | 367 ft | 133 kts | 231° |
| 2026-05-01 08:42 | 34.44014 | 135.26313 | 174 ft | 133 kts | 231° |
| 2026-05-01 08:42 | 34.43428 | 135.25447 | 28 ft | 132 kts | 231° |
| 2026-05-01 08:42 | 34.42960 | 135.24752 | 21 ft | 68 kts | 231° |
| 2026-05-01 08:43 | 34.42833 | 135.24563 | 22 ft | 2 kts | 231° |
| 2026-05-01 08:43 | 34.42800 | 135.24503 | 22 ft | 22 kts | 240° |
| 2026-05-01 08:43 | 34.42739 | 135.24331 | 24 ft | 23 kts | 254° |
| 2026-05-01 08:43 | 34.42730 | 135.24149 | 24 ft | 20 kts | 301° |
| 2026-05-01 08:44 | 34.42822 | 135.24045 | 26 ft | 18 kts | 322° |
| 2026-05-01 08:44 | 34.42917 | 135.24039 | 28 ft | 14 kts | 25° |
| 2026-05-01 08:44 | 34.42951 | 135.24048 | 28 ft | 1 kts | 351° |
| 2026-05-01 08:44 | 34.42977 | 135.24013 | 29 ft | 8 kts | 307° |
| 2026-05-01 08:45 | 34.43011 | 135.23975 | 29 ft | 0 kts | 321° |